DK-0004 weather

Br├Ždstrup
Br├Ždstrup, Central Jutland, Denmark

Public forecast

Using degrees Celsius for public forecast. Weather courtesy of forecast.io.

METAR (pilot weather report)

Closest report is Billund Airport, 20.9 nm (38.6 km) SW. Retrieved 2019/05/21 03:20 UTC (38 minutes ago):

EKBI 210320Z AUTO 33006KT 1500 BR OVC002/// 13/13 Q1007

TAF (pilot weather forecast)

Forecast is more than 12 hours old.

Closest forecast is Billund Airport, 20.9 nm (38.6 km) SW. Retrieved 2019/05/20 00:18 UTC (1 day ago):

TAF EKBI 202312Z 2100/2124 01008KT 9999 BKN008 BECMG 2100/2102 4000 BR TEMPO 2102/2107 2000 BKN002 BECMG 2107/2109 8000 NSW BKN015 TEMPO 2109/2124 4000 SHRA BKN008 SCT020CB PROB40 TEMPO 2112/2121 TSRA